Time;durP1;ratioP1;P1;durP2;ratioP2;P2;SDS_P1;SDS_P2;PMS_P1;PMS_P2;Temp;Humidity;BMP_temperature;BMP_pressure;BME280_temperature;BME280_humidity;BME280_pressure;Samples;Min_cycle;Max_cycle;Signal;HPM_P1;HPM_P2
2022/07/05 00:01:40;;;;;;;6.72;1.70;;;;;;;17.08;73.91;92714.47;5033359;28;20168;-76
2022/07/05 00:04:06;;;;;;;4.55;1.92;;;;;;;17.05;74.45;92713.25;5015348;28;20037;-76
2022/07/05 00:06:31;;;;;;;3.95;1.50;;;;;;;17.03;74.55;92710.16;4998391;28;20057;-77
2022/07/05 00:08:57;;;;;;;3.83;1.40;;;;;;;17.02;75.13;92707.81;5033151;28;20049;-76
2022/07/05 00:11:22;;;;;;;4.78;1.50;;;;;;;16.97;74.69;92703.50;5030968;28;20037;-76
2022/07/05 00:13:48;;;;;;;5.95;1.70;;;;;;;16.94;74.02;92701.50;5014614;28;20476;-76
2022/07/05 00:16:14;;;;;;;4.65;1.65;;;;;;;16.91;74.83;92707.44;5015385;28;20406;-77
2022/07/05 00:18:39;;;;;;;6.47;1.70;;;;;;;16.90;75.16;92715.69;5015231;28;20495;-76
2022/07/05 00:21:05;;;;;;;3.70;1.60;;;;;;;16.97;72.11;92713.31;5032539;28;20121;-77
2022/07/05 00:23:30;;;;;;;5.07;1.90;;;;;;;17.13;72.28;92713.53;5014751;28;20037;-76
2022/07/05 00:25:56;;;;;;;4.03;1.80;;;;;;;17.12;72.77;92712.75;4998638;28;20112;-76
2022/07/05 00:28:21;;;;;;;6.97;1.90;;;;;;;17.10;73.93;92703.59;5031042;28;21398;-77
2022/07/05 00:30:47;;;;;;;3.17;1.65;;;;;;;17.04;74.67;92700.34;5032302;28;20403;-76
2022/07/05 00:33:13;;;;;;;6.97;1.90;;;;;;;16.97;76.43;92700.84;5014568;28;20146;-76
2022/07/05 00:35:38;;;;;;;5.80;1.60;;;;;;;16.90;76.59;92713.81;4995927;28;20511;-77
2022/07/05 00:38:04;;;;;;;4.68;1.70;;;;;;;16.82;76.02;92710.13;5011701;28;20403;-76
2022/07/05 00:40:29;;;;;;;3.47;1.55;;;;;;;16.78;76.19;92711.81;5014777;28;20109;-76
2022/07/05 00:42:55;;;;;;;4.53;1.60;;;;;;;16.74;75.94;92708.25;4998476;28;20025;-76
2022/07/05 00:45:21;;;;;;;4.95;1.77;;;;;;;16.68;75.51;92709.53;4997932;28;20087;-77
2022/07/05 00:47:46;;;;;;;6.57;1.70;;;;;;;16.65;75.21;92715.44;5032321;28;20441;-77
2022/07/05 00:50:12;;;;;;;2.80;1.50;;;;;;;16.72;75.80;92721.00;5031740;28;20463;-76
2022/07/05 00:52:38;;;;;;;6.05;1.50;;;;;;;16.66;75.80;92722.28;5032605;28;20390;-76
2022/07/05 00:55:04;;;;;;;2.95;1.60;;;;;;;16.58;75.91;92723.09;4998420;28;20037;-76
2022/07/05 00:57:32;;;;;;;5.47;1.50;;;;;;;16.54;75.60;92716.91;5013440;28;20044;-77
2022/07/05 00:59:58;;;;;;;4.18;1.52;;;;;;;16.52;75.35;92711.16;5032216;28;20036;-77
2022/07/05 01:02:23;;;;;;;3.20;1.50;;;;;;;16.52;75.02;92709.28;5014255;28;20049;-76
2022/07/05 01:04:50;;;;;;;4.97;1.40;;;;;;;16.54;74.73;92714.25;5014325;28;20068;-76
2022/07/05 01:07:22;;;;;;;3.08;1.50;;;;;;;16.52;74.78;92706.63;5013181;28;20048;-76
2022/07/05 01:09:48;;;;;;;3.63;1.80;;;;;;;16.56;74.05;92701.50;4997987;28;20037;-76
2022/07/05 01:12:13;;;;;;;4.18;1.52;;;;;;;16.56;74.52;92691.69;5013918;28;20099;-76
2022/07/05 01:14:42;;;;;;;4.65;1.50;;;;;;;16.54;74.96;92687.84;5013112;28;20029;-76
2022/07/05 01:17:07;;;;;;;5.25;1.52;;;;;;;16.52;75.10;92682.84;5031733;28;20060;-76
2022/07/05 01:19:33;;;;;;;3.95;1.58;;;;;;;16.47;75.35;92677.75;5032156;28;20029;-76
2022/07/05 01:22:07;;;;;;;3.63;1.70;;;;;;;16.43;75.70;92688.16;5014208;28;20112;-76
2022/07/05 01:24:33;;;;;;;3.30;1.60;;;;;;;16.38;75.59;92685.72;4996349;28;20045;-76
2022/07/05 01:26:59;;;;;;;5.43;1.60;;;;;;;16.35;75.58;92675.78;5031603;28;20036;-76
2022/07/05 01:29:25;;;;;;;6.22;1.70;;;;;;;16.30;76.01;92677.81;5013862;28;20060;-76
2022/07/05 01:31:50;;;;;;;3.70;1.77;;;;;;;16.27;76.45;92671.31;4994184;28;20455;-76
2022/07/05 01:34:16;;;;;;;4.40;1.50;;;;;;;16.25;76.29;92668.19;5027928;28;20093;-76
2022/07/05 01:36:41;;;;;;;3.30;1.67;;;;;;;16.20;76.31;92666.50;5030130;28;20037;-76
2022/07/05 01:39:08;;;;;;;4.97;1.70;;;;;;;16.18;76.25;92675.84;5031160;28;20025;-77
2022/07/05 01:41:34;;;;;;;3.05;1.45;;;;;;;16.13;76.57;92676.03;5031496;28;20047;-77
2022/07/05 01:44:00;;;;;;;4.43;1.33;;;;;;;16.10;76.26;92669.50;5011972;28;20048;-76
2022/07/05 01:46:32;;;;;;;4.05;1.40;;;;;;;16.08;76.61;92660.34;5013118;28;20079;-76
2022/07/05 01:49:02;;;;;;;3.10;1.50;;;;;;;16.05;76.09;92666.25;5031898;28;20091;-76
2022/07/05 01:51:33;;;;;;;4.47;1.70;;;;;;;16.00;76.18;92673.25;5013569;28;20032;-76
2022/07/05 01:53:59;;;;;;;2.58;1.30;;;;;;;15.99;76.50;92679.63;5013592;28;20040;-76
2022/07/05 01:56:25;;;;;;;2.85;1.35;;;;;;;15.97;76.67;92662.56;5012609;28;20494;-76
2022/07/05 01:58:52;;;;;;;2.60;1.40;;;;;;;15.95;76.63;92665.50;5031216;28;20038;-76
2022/07/05 02:01:38;;;;;;;4.93;1.80;;;;;;;15.92;76.22;92658.22;4997337;28;20373;-76
2022/07/05 02:04:05;;;;;;;6.47;1.80;;;;;;;15.91;75.70;92656.66;5012799;28;20095;-76
2022/07/05 02:06:32;;;;;;;4.40;1.50;;;;;;;15.91;75.62;92656.66;5013269;28;20032;-76
2022/07/05 02:09:03;;;;;;;4.00;1.42;;;;;;;15.89;75.78;92647.50;4995885;28;20038;-77
2022/07/05 02:11:29;;;;;;;3.25;1.50;;;;;;;15.88;75.68;92654.66;5013323;28;20037;-77
2022/07/05 02:13:55;;;;;;;5.03;1.52;;;;;;;15.87;75.44;92650.44;5030424;28;20026;-77
2022/07/05 02:16:23;;;;;;;5.55;1.63;;;;;;;15.87;75.10;92654.94;4996755;28;20041;-76
2022/07/05 02:18:49;;;;;;;2.65;1.50;;;;;;;15.88;75.18;92652.00;5012690;28;20037;-76
2022/07/05 02:21:15;;;;;;;7.53;1.40;;;;;;;15.87;75.32;92655.72;5013292;28;20080;-76
2022/07/05 02:23:42;;;;;;;2.88;1.60;;;;;;;15.85;75.12;92657.94;4996999;28;20052;-76
2022/07/05 02:26:08;;;;;;;5.63;1.67;;;;;;;15.77;74.96;92645.50;5012491;28;20029;-76
2022/07/05 02:28:37;;;;;;;4.18;1.60;;;;;;;15.82;74.82;92647.97;4996559;28;20205;-76
2022/07/05 02:31:03;;;;;;;8.88;1.70;;;;;;;15.82;74.42;92659.31;4995671;28;20478;-76
2022/07/05 02:33:29;;;;;;;6.50;2.10;;;;;;;15.81;74.44;92663.06;5012957;28;20141;-76
2022/07/05 02:35:55;;;;;;;5.28;1.70;;;;;;;15.94;73.37;92658.69;4996741;28;20043;-76
2022/07/05 02:38:20;;;;;;;5.07;1.75;;;;;;;15.90;73.94;92651.72;5012718;28;20099;-76
2022/07/05 02:40:46;;;;;;;3.55;1.70;;;;;;;15.88;74.23;92649.38;4991576;28;20053;-76
2022/07/05 02:43:12;;;;;;;2.95;1.60;;;;;;;15.84;74.80;92645.03;5009709;28;20041;-76
2022/07/05 02:45:38;;;;;;;5.03;1.55;;;;;;;15.79;74.73;92643.34;4993244;28;20034;-76
2022/07/05 02:48:04;;;;;;;2.90;1.45;;;;;;;15.78;74.31;92644.41;5021697;28;20056;-76
2022/07/05 02:50:31;;;;;;;6.13;1.63;;;;;;;15.79;73.83;92643.34;4996268;28;20120;-76
2022/07/05 02:52:57;;;;;;;3.33;1.40;;;;;;;15.80;73.70;92639.59;5012963;28;20068;-76
2022/07/05 02:55:23;;;;;;;5.63;1.70;;;;;;;15.80;73.96;92642.25;5012758;28;20076;-76
2022/07/05 02:57:49;;;;;;;3.17;1.60;;;;;;;15.81;73.37;92646.44;4996230;28;20500;-76
2022/07/05 03:00:16;;;;;;;6.05;1.65;;;;;;;15.81;73.41;92641.16;5012230;28;20069;-76
2022/07/05 03:02:46;;;;;;;3.20;1.55;;;;;;;15.81;73.53;92643.81;5011008;28;20038;-76
2022/07/05 03:05:13;;;;;;;2.60;1.50;;;;;;;15.86;72.31;92634.94;4996534;28;20108;-76
2022/07/05 03:07:43;;;;;;;5.28;1.85;;;;;;;15.88;72.07;92630.88;4996744;28;20065;-76
2022/07/05 03:10:09;;;;;;;6.13;1.80;;;;;;;15.89;72.79;92624.50;4996437;28;20141;-76
2022/07/05 03:12:35;;;;;;;5.03;1.80;;;;;;;15.89;73.33;92623.75;4995574;28;20407;-77
2022/07/05 03:15:02;;;;;;;5.43;1.88;;;;;;;15.89;73.21;92613.94;5012565;28;20048;-76
2022/07/05 03:17:28;;;;;;;3.50;1.50;;;;;;;15.96;71.60;92611.63;5012732;28;20037;-77
2022/07/05 03:19:53;;;;;;;4.93;1.80;;;;;;;15.99;71.80;92600.41;5014432;28;20113;-77
2022/07/05 03:22:21;;;;;;;6.85;1.73;;;;;;;16.01;72.14;92603.53;4999637;28;20037;-76
2022/07/05 03:24:48;;;;;;;7.63;1.63;;;;;;;16.12;71.39;92613.72;5000024;28;20091;-76
2022/07/05 03:27:15;;;;;;;4.10;1.90;;;;;;;16.13;71.69;92612.66;5017011;28;20087;-77
2022/07/05 03:29:43;;;;;;;3.78;1.70;;;;;;;16.14;71.53;92611.53;5002021;28;20045;-76
2022/07/05 03:32:09;;;;;;;4.05;1.77;;;;;;;16.20;70.64;92612.91;5033103;28;20030;-77
2022/07/05 03:34:35;;;;;;;3.28;1.42;;;;;;;16.21;70.71;92627.66;5016084;28;20064;-77
2022/07/05 03:37:03;;;;;;;3.22;1.70;;;;;;;16.40;69.69;92620.13;5016034;28;20037;-76
2022/07/05 03:39:28;;;;;;;3.00;1.65;;;;;;;16.43;68.39;92613.44;5016331;28;20499;-76
2022/07/05 03:41:54;;;;;;;3.60;1.67;;;;;;;16.49;68.46;92620.09;5033927;28;20036;-77
2022/07/05 03:44:22;;;;;;;6.03;1.90;;;;;;;16.53;68.65;92612.31;5014958;28;20061;-76
2022/07/05 03:46:48;;;;;;;7.65;2.08;;;;;;;16.55;67.21;92615.38;5016061;28;20124;-76
2022/07/05 03:49:14;;;;;;;3.33;1.48;;;;;;;16.57;67.00;92619.28;4999449;28;20453;-76
2022/07/05 03:51:40;;;;;;;4.07;1.60;;;;;;;16.55;67.74;92616.19;5015725;28;20041;-76
2022/07/05 03:54:06;;;;;;;3.20;1.60;;;;;;;16.53;68.49;92617.59;5014899;28;20399;-76
2022/07/05 03:56:32;;;;;;;4.30;1.60;;;;;;;16.49;68.99;92628.00;5015859;28;20034;-76
2022/07/05 03:59:01;;;;;;;3.13;1.80;;;;;;;16.43;69.26;92630.03;4999865;28;20048;-77
2022/07/05 04:01:29;;;;;;;3.50;1.80;;;;;;;16.40;70.07;92622.00;4995958;28;20410;-76
2022/07/05 04:03:55;;;;;;;5.55;1.80;;;;;;;16.43;68.84;92627.41;5011291;28;20457;-77
2022/07/05 04:06:22;;;;;;;3.10;1.52;;;;;;;16.54;69.39;92629.69;5015313;28;20116;-76
2022/07/05 04:08:49;;;;;;;4.43;1.67;;;;;;;16.56;69.09;92627.50;5015467;28;20049;-77
2022/07/05 04:11:15;;;;;;;2.83;1.50;;;;;;;16.76;66.09;92631.28;5014949;28;20021;-76
2022/07/05 04:13:43;;;;;;;7.35;1.65;;;;;;;17.09;63.75;92628.78;5031828;28;20041;-76
2022/07/05 04:16:10;;;;;;;5.28;3.25;;;;;;;17.33;63.08;92635.28;5015351;28;20048;-77
2022/07/05 04:18:36;;;;;;;6.05;1.50;;;;;;;17.58;62.78;92636.91;5015714;28;20034;-76
2022/07/05 04:21:03;;;;;;;4.63;1.60;;;;;;;17.71;62.75;92627.13;5015306;28;20128;-76
2022/07/05 04:23:29;;;;;;;4.88;1.70;;;;;;;17.70;62.35;92638.84;5014212;28;20033;-76
2022/07/05 04:25:55;;;;;;;4.43;1.77;;;;;;;17.76;61.81;92634.09;5005311;28;20087;-76
2022/07/05 04:28:31;;;;;;;3.15;1.60;;;;;;;17.93;60.18;92644.56;5009175;28;20037;-76
2022/07/05 04:30:59;;;;;;;8.80;1.98;;;;;;;17.94;62.84;92651.38;5018240;28;20115;-76
2022/07/05 04:33:26;;;;;;;4.78;1.80;;;;;;;17.90;63.81;92650.53;4995192;28;20415;-76
2022/07/05 04:35:55;;;;;;;4.30;1.60;;;;;;;17.87;63.14;92656.44;4996320;28;20040;-78
2022/07/05 04:38:22;;;;;;;3.75;1.83;;;;;;;17.84;62.79;92657.13;5014707;28;20037;-76
2022/07/05 04:40:48;;;;;;;3.13;1.58;;;;;;;17.79;62.97;92666.00;5013399;28;20033;-77
2022/07/05 04:43:14;;;;;;;5.93;1.67;;;;;;;17.76;63.64;92665.88;5000699;28;20096;-77
2022/07/05 04:45:39;;;;;;;3.85;1.60;;;;;;;17.71;64.81;92669.50;5010870;28;20407;-76
2022/07/05 04:48:05;;;;;;;4.78;1.80;;;;;;;17.68;65.73;92675.44;5008131;28;20038;-77
2022/07/05 04:50:33;;;;;;;6.65;1.80;;;;;;;17.65;65.96;92665.50;5011476;28;20040;-77
2022/07/05 04:52:58;;;;;;;5.75;1.75;;;;;;;17.65;66.38;92676.88;4995656;28;20037;-77
2022/07/05 04:55:24;;;;;;;4.80;1.73;;;;;;;17.67;67.19;92674.69;5009894;28;20041;-77
2022/07/05 04:57:50;;;;;;;3.83;1.70;;;;;;;17.72;67.84;92675.56;5011066;28;20057;-77
2022/07/05 05:00:15;;;;;;;3.22;1.42;;;;;;;17.74;68.70;92674.13;5032675;28;20049;-77
2022/07/05 05:02:41;;;;;;;3.25;1.73;;;;;;;17.76;68.53;92666.63;5032014;28;20029;-76
2022/07/05 05:05:07;;;;;;;5.55;1.80;;;;;;;17.80;69.31;92674.72;5012191;28;20050;-76
2022/07/05 05:07:34;;;;;;;3.72;1.65;;;;;;;17.83;70.24;92679.38;5030297;28;20041;-76
2022/07/05 05:10:00;;;;;;;4.97;1.83;;;;;;;17.85;70.86;92675.31;5013866;28;20025;-77
2022/07/05 05:12:26;;;;;;;6.07;1.83;;;;;;;17.87;71.37;92672.34;5015492;28;20511;-77
2022/07/05 05:14:51;;;;;;;5.93;1.70;;;;;;;17.86;71.18;92668.91;5032283;28;20065;-76
2022/07/05 05:17:17;;;;;;;6.40;1.80;;;;;;;17.86;72.43;92668.16;5015030;28;20037;-77
2022/07/05 05:19:44;;;;;;;5.55;1.80;;;;;;;17.86;72.10;92663.63;5014955;28;20065;-77
2022/07/05 05:22:10;;;;;;;4.47;1.70;;;;;;;17.86;71.05;92660.22;5032644;28;20041;-77
2022/07/05 05:24:36;;;;;;;4.10;1.75;;;;;;;17.86;70.88;92668.16;5014318;28;20030;-77
2022/07/05 05:27:01;;;;;;;6.25;1.80;;;;;;;17.91;70.46;92664.53;5032725;28;20506;-76
2022/07/05 05:29:27;;;;;;;6.57;1.90;;;;;;;17.94;70.51;92666.50;5014270;28;20064;-76
2022/07/05 05:31:53;;;;;;;3.80;1.75;;;;;;;17.91;70.64;92670.59;5013942;28;20040;-75
2022/07/05 05:34:19;;;;;;;3.65;1.75;;;;;;;17.90;70.78;92671.72;5031117;28;20077;-76
2022/07/05 05:36:44;;;;;;;3.92;1.70;;;;;;;17.90;70.56;92663.75;4997043;28;20132;-76
2022/07/05 05:39:10;;;;;;;4.20;1.60;;;;;;;17.89;70.67;92664.84;5013861;28;20040;-76
2022/07/05 05:41:36;;;;;;;4.75;1.80;;;;;;;17.88;70.43;92668.59;5013948;28;20037;-76
2022/07/05 05:44:02;;;;;;;4.35;1.98;;;;;;;17.92;69.83;92663.41;5013652;28;20362;-76
2022/07/05 05:46:28;;;;;;;7.40;2.00;;;;;;;18.06;68.85;92671.84;5031106;28;20565;-76
2022/07/05 05:48:53;;;;;;;5.50;1.80;;;;;;;18.28;68.32;92670.66;5031247;28;20040;-76
2022/07/05 05:51:19;;;;;;;4.72;2.03;;;;;;;18.91;66.26;92668.53;5013492;28;20495;-76
2022/07/05 05:53:45;;;;;;;6.25;1.60;;;;;;;19.86;62.59;92672.72;5031239;28;20029;-76
2022/07/05 05:56:14;;;;;;;6.15;1.88;;;;;;;20.81;60.22;92664.84;5029685;28;20046;-76
2022/07/05 05:58:40;;;;;;;2.63;1.48;;;;;;;21.75;55.24;92668.38;5013509;28;20037;-76
2022/07/05 06:01:05;;;;;;;6.15;1.70;;;;;;;22.54;52.45;92663.69;5031111;28;20489;-76
2022/07/05 06:03:31;;;;;;;6.47;1.73;;;;;;;23.14;54.67;92671.13;5031876;28;20033;-76
2022/07/05 06:05:56;;;;;;;5.20;1.50;;;;;;;23.75;53.92;92674.63;5013394;28;20510;-76
2022/07/05 06:08:23;;;;;;;4.47;1.60;;;;;;;24.27;50.15;92680.91;5030748;28;20444;-77
2022/07/05 06:10:49;;;;;;;6.05;2.03;;;;;;;24.81;51.22;92665.38;5031116;28;20041;-76
2022/07/05 06:13:15;;;;;;;5.45;1.85;;;;;;;24.97;52.32;92676.59;4997249;28;20060;-76
2022/07/05 06:15:41;;;;;;;4.38;1.70;;;;;;;25.27;50.13;92679.13;5031042;28;20108;-77
2022/07/05 06:18:09;;;;;;;3.90;1.80;;;;;;;25.80;48.08;92682.44;5031049;28;20034;-77
2022/07/05 06:20:36;;;;;;;5.25;1.80;;;;;;;26.29;43.62;92681.88;5013798;28;20044;-77
2022/07/05 06:23:04;;;;;;;2.90;1.60;;;;;;;26.85;42.72;92679.66;5031667;28;20033;-77
2022/07/05 06:25:30;;;;;;;5.55;1.80;;;;;;;27.30;42.40;92676.59;5030283;28;20029;-77
2022/07/05 06:28:01;;;;;;;6.55;1.83;;;;;;;27.62;40.66;92679.97;5031859;28;20168;-77
2022/07/05 06:30:30;;;;;;;9.05;1.80;;;;;;;27.95;39.53;92682.59;5024334;28;20044;-77
2022/07/05 06:32:56;;;;;;;3.97;1.77;;;;;;;27.97;38.23;92685.66;5009575;28;20523;-77
2022/07/05 06:35:22;;;;;;;5.55;1.70;;;;;;;27.97;38.79;92681.06;5032739;28;20031;-77
2022/07/05 06:37:52;;;;;;;5.18;1.70;;;;;;;27.80;39.80;92679.91;4994970;28;20415;-77
2022/07/05 06:40:21;;;;;;;3.80;1.70;;;;;;;27.64;39.34;92684.22;5028298;28;20033;-77
2022/07/05 06:42:47;;;;;;;5.20;1.70;;;;;;;27.22;42.36;92685.81;5030808;28;20483;-77
2022/07/05 06:45:14;;;;;;;4.43;1.60;;;;;;;26.81;46.40;92684.28;5011934;28;20037;-77
2022/07/05 06:47:40;;;;;;;5.30;1.70;;;;;;;26.60;45.14;92679.66;5029135;28;20124;-76
2022/07/05 06:50:06;;;;;;;5.30;1.73;;;;;;;26.54;43.76;92676.53;5028016;28;20034;-77
2022/07/05 06:52:32;;;;;;;3.55;1.67;;;;;;;26.32;41.58;92678.44;5010548;28;20029;-76
2022/07/05 06:54:59;;;;;;;5.22;2.00;;;;;;;26.51;41.86;92671.94;5039137;28;20482;-77
2022/07/05 06:57:25;;;;;;;4.03;1.48;;;;;;;26.82;42.89;92679.66;5041985;28;20029;-76
2022/07/05 06:59:51;;;;;;;3.28;1.70;;;;;;;26.84;47.60;92678.16;5002877;28;20057;-76
2022/07/05 07:02:19;;;;;;;4.30;1.90;;;;;;;26.90;44.04;92681.22;5030160;28;20037;-76
2022/07/05 07:04:45;;;;;;;4.43;1.40;;;;;;;26.75;46.35;92681.22;5015593;28;20037;-76
2022/07/05 07:09:59;;;;;;;4.20;1.55;;;;;;;26.82;43.35;92685.03;5021791;28;20040;-75
2022/07/05 07:12:25;;;;;;;5.00;1.75;;;;;;;26.68;44.34;92681.22;5015079;28;20143;-79
2022/07/05 07:14:50;;;;;;;10.93;2.10;;;;;;;26.58;49.72;92690.78;5029347;28;20038;-79
2022/07/05 07:17:16;;;;;;;9.63;1.75;;;;;;;25.92;50.87;92687.53;5018481;28;20067;-79
2022/07/05 07:19:41;;;;;;;5.72;2.10;;;;;;;25.33;53.11;92680.31;5034446;28;20037;-79
2022/07/05 07:22:07;;;;;;;11.00;2.08;;;;;;;24.93;55.38;92686.50;5034647;28;20562;-79
2022/07/05 07:24:33;;;;;;;10.40;2.20;;;;;;;24.76;54.58;92679.88;5033698;28;20033;-78
2022/07/05 07:27:04;;;;;;;4.47;1.88;;;;;;;24.83;55.12;92689.88;5036279;28;20045;-79
2022/07/05 07:29:39;;;;;;;;;;;;;;;24.80;55.62;92690.63;5037428;28;20041;-79
2022/07/05 07:32:06;;;;;;;6.38;2.45;;;;;;;24.36;57.07;92688.66;5016557;28;19940;-79
2022/07/05 07:34:31;;;;;;;4.95;1.80;;;;;;;24.70;56.98;92692.84;5036239;28;20056;-79
2022/07/05 07:36:57;;;;;;;8.50;2.38;;;;;;;24.76;55.07;92689.81;5036176;28;20108;-79
2022/07/05 07:39:24;;;;;;;5.00;2.05;;;;;;;24.80;56.62;92690.63;5035886;28;20033;-79
2022/07/05 07:41:50;;;;;;;6.47;2.13;;;;;;;24.83;58.69;92687.94;5035851;28;20029;-79
2022/07/05 07:44:16;;;;;;;5.18;1.90;;;;;;;24.84;57.55;92689.50;5000609;28;20041;-79
2022/07/05 07:46:42;;;;;;;5.13;1.80;;;;;;;24.90;58.42;92680.00;5036035;28;20394;-79
2022/07/05 07:49:08;;;;;;;6.10;1.92;;;;;;;24.82;55.66;92688.34;4998827;28;20037;-78
2022/07/05 07:51:34;;;;;;;5.22;1.90;;;;;;;24.94;58.91;92688.03;5020023;28;20033;-79
2022/07/05 07:54:00;;;;;;;5.20;1.70;;;;;;;24.93;55.80;92681.16;5032841;28;20033;-78
2022/07/05 07:56:26;;;;;;;9.68;1.90;;;;;;;25.01;54.03;92687.31;5035007;28;20045;-78
2022/07/05 07:58:52;;;;;;;4.80;2.00;;;;;;;25.30;59.83;92689.06;5016112;28;20040;-78
2022/07/05 08:01:18;;;;;;;7.50;2.20;;;;;;;25.28;61.39;92685.25;5019467;28;20029;-78
2022/07/05 08:03:44;;;;;;;6.97;2.00;;;;;;;25.21;58.83;92687.88;5016722;28;20354;-78
2022/07/05 08:06:11;;;;;;;5.18;2.38;;;;;;;25.08;58.67;92690.84;5016617;28;20033;-78
2022/07/05 08:08:38;;;;;;;9.18;1.90;;;;;;;25.11;57.26;92681.28;5035109;28;20410;-79
2022/07/05 08:11:04;;;;;;;5.47;1.75;;;;;;;25.24;55.46;92684.44;5033138;28;20045;-75
2022/07/05 08:13:30;;;;;;;5.80;1.90;;;;;;;25.20;55.42;92689.03;5028976;28;20068;-76
2022/07/05 08:15:57;;;;;;;3.97;1.92;;;;;;;25.19;55.74;92684.81;5014945;28;20061;-75
2022/07/05 08:23:51;;;;;;;4.15;1.63;;;;;;;25.32;56.31;92686.03;5015099;28;20048;-76
2022/07/05 08:26:16;;;;;;;5.95;2.08;;;;;;;25.25;56.65;92686.00;5032098;28;20041;-76
2022/07/05 08:28:42;;;;;;;4.70;1.95;;;;;;;25.14;53.87;92686.66;5032819;28;20109;-75
2022/07/05 08:31:07;;;;;;;6.20;2.22;;;;;;;25.25;53.14;92688.69;5015220;28;20403;-75
2022/07/05 08:33:33;;;;;;;4.43;2.00;;;;;;;25.38;58.98;92689.16;5013956;28;20096;-76
2022/07/05 08:35:59;;;;;;;6.70;1.75;;;;;;;25.52;56.04;92686.53;5032181;28;20040;-75
2022/07/05 08:38:24;;;;;;;5.88;2.42;;;;;;;25.81;53.21;92682.06;5032699;28;20056;-76
2022/07/05 08:40:51;;;;;;;4.07;1.60;;;;;;;26.14;45.14;92686.44;5032527;28;20534;-75
2022/07/05 08:43:19;;;;;;;5.00;1.70;;;;;;;26.34;46.55;92689.56;4998454;28;20116;-76
2022/07/05 08:45:47;;;;;;;4.97;1.60;;;;;;;26.57;44.45;92683.13;5014794;28;20030;-76
2022/07/05 08:48:15;;;;;;;4.90;1.58;;;;;;;26.65;42.59;92684.66;5014115;28;20517;-76
2022/07/05 08:50:41;;;;;;;4.50;1.80;;;;;;;26.39;51.26;92688.44;5014644;28;20495;-76
2022/07/05 08:53:07;;;;;;;2.75;1.50;;;;;;;26.28;49.53;92680.34;5014486;28;20048;-76
2022/07/05 08:55:33;;;;;;;3.47;1.80;;;;;;;26.12;53.37;92687.94;4998230;28;20045;-76
2022/07/05 08:58:00;;;;;;;3.63;1.48;;;;;;;26.32;47.02;92677.66;5014334;28;20029;-76
2022/07/05 09:00:25;;;;;;;8.63;1.80;;;;;;;26.47;48.57;92692.63;5014633;28;20108;-76
2022/07/05 09:02:52;;;;;;;3.72;1.60;;;;;;;26.35;45.81;92696.47;5014562;28;20120;-76
2022/07/05 09:05:20;;;;;;;6.40;1.80;;;;;;;26.40;52.05;92687.28;5031998;28;20488;-76
2022/07/05 09:07:58;;;;;;;4.38;1.60;;;;;;;26.73;50.49;92686.19;5031750;28;20082;-76
2022/07/05 09:10:30;;;;;;;3.90;1.63;;;;;;;26.52;48.29;92694.19;5030204;28;20372;-76
2022/07/05 09:12:57;;;;;;;5.05;1.90;;;;;;;26.31;50.99;92692.22;5032049;28;20034;-76
2022/07/05 09:15:23;;;;;;;5.00;1.70;;;;;;;26.30;51.25;92691.47;5031689;28;20037;-76
2022/07/05 09:17:49;;;;;;;9.90;2.03;;;;;;;26.50;56.53;92688.44;5013640;28;20121;-76
2022/07/05 09:20:17;;;;;;;9.18;1.88;;;;;;;26.58;51.04;92693.47;5013516;28;20124;-76
2022/07/05 09:22:49;;;;;;;4.38;1.70;;;;;;;26.49;47.91;92681.53;5014252;28;20491;-76
2022/07/05 09:25:20;;;;;;;5.63;2.00;;;;;;;26.34;53.85;92694.94;5031814;28;20688;-75
2022/07/05 09:27:55;;;;;;;;;;;;;;;26.09;55.34;92692.16;5014699;28;20095;-75
2022/07/05 09:30:31;;;;;;;4.97;1.80;;;;;;;26.09;54.23;92694.09;5013619;28;20282;-75
2022/07/05 09:33:04;;;;;;;5.18;1.77;;;;;;;26.18;53.01;92681.06;5013919;28;20140;-75
2022/07/05 09:35:38;;;;;;;2.97;1.50;;;;;;;26.09;47.38;92684.09;5013766;28;20045;-75
2022/07/05 09:38:05;;;;;;;7.70;1.85;;;;;;;26.59;46.36;92691.53;5013773;28;20128;-75
2022/07/05 09:40:32;;;;;;;7.35;1.63;;;;;;;26.45;44.56;92688.81;5031205;28;20033;-75
2022/07/05 09:43:11;;;;;;;6.50;1.90;;;;;;;26.60;48.34;92684.28;5013669;28;20037;-75
2022/07/05 09:45:36;;;;;;;26.38;3.60;;;;;;;26.81;47.76;92686.97;5013732;28;20141;-75
2022/07/05 09:48:04;;;;;;;4.53;1.85;;;;;;;26.93;50.77;92685.81;5031365;28;20064;-75
2022/07/05 09:50:34;;;;;;;6.65;1.88;;;;;;;26.86;48.51;92685.81;5031331;28;20039;-75
2022/07/05 09:53:00;;;;;;;4.63;1.90;;;;;;;26.95;51.17;92689.66;5031307;28;20034;-75
2022/07/05 09:55:25;;;;;;;7.03;2.05;;;;;;;27.23;52.77;92692.75;5013364;28;20041;-75
2022/07/05 09:57:51;;;;;;;4.85;2.00;;;;;;;27.43;47.31;92690.41;5031176;28;20112;-75
2022/07/05 10:00:19;;;;;;;6.63;1.58;;;;;;;27.52;47.26;92688.84;5012937;28;20541;-75
2022/07/05 10:02:53;;;;;;;7.05;1.70;;;;;;;27.47;44.10;92691.16;4978304;28;20128;-75
2022/07/05 10:05:20;;;;;;;4.63;1.60;;;;;;;27.29;44.37;92685.81;5011159;28;20038;-75
2022/07/05 10:07:49;;;;;;;7.80;1.55;;;;;;;27.43;45.04;92693.88;5011340;28;20038;-75
2022/07/05 10:10:22;;;;;;;7.35;1.55;;;;;;;27.64;44.53;92694.97;5011509;28;20077;-75
2022/07/05 10:12:51;;;;;;;5.90;2.05;;;;;;;27.42;48.30;92689.63;5012683;28;20450;-75
2022/07/05 10:15:19;;;;;;;5.30;1.52;;;;;;;27.20;42.30;92683.50;4993615;28;20124;-75
2022/07/05 10:17:49;;;;;;;3.65;1.73;;;;;;;27.24;45.45;92680.81;5011140;28;20091;-75
2022/07/05 10:20:40;;;;;;;4.20;1.70;;;;;;;27.18;44.66;92683.88;5010967;28;20034;-75
2022/07/05 10:23:10;;;;;;;6.70;1.60;;;;;;;27.54;42.85;92686.53;4994502;28;20037;-75
2022/07/05 10:25:37;;;;;;;3.33;1.40;;;;;;;27.77;42.56;92682.63;4993320;28;20044;-75
2022/07/05 10:28:04;;;;;;;2.83;1.30;;;;;;;27.89;41.51;92684.91;5011109;28;20068;-75
2022/07/05 10:30:30;;;;;;;3.60;1.30;;;;;;;27.65;36.38;92686.53;4976615;28;20034;-75
2022/07/05 10:33:01;;;;;;;2.42;1.08;;;;;;;27.77;40.02;92688.00;4997407;28;20571;-75
2022/07/05 10:35:27;;;;;;;2.57;1.27;;;;;;;28.09;41.32;92689.84;5024843;28;20088;-75
2022/07/05 10:37:54;;;;;;;3.03;1.38;;;;;;;28.48;39.57;92696.97;5026915;28;20028;-75
2022/07/05 10:40:20;;;;;;;2.78;1.27;;;;;;;28.31;37.04;92693.19;5013537;28;20246;-75
2022/07/05 10:42:50;;;;;;;7.07;1.10;;;;;;;27.93;37.76;92691.06;5030632;28;20038;-75
2022/07/05 10:45:36;;;;;;;1.75;1.25;;;;;;;27.90;39.30;92682.97;5028637;28;20044;-75
2022/07/05 10:48:20;;;;;;;3.53;1.30;;;;;;;27.68;37.52;92693.03;5030825;28;20037;-75
2022/07/05 10:50:56;;;;;;;3.13;1.10;;;;;;;27.57;39.53;92685.75;5030667;28;20042;-75
2022/07/05 10:53:27;;;;;;;2.92;1.17;;;;;;;27.49;39.85;92686.16;5012884;28;20518;-75
2022/07/05 10:55:54;;;;;;;2.60;1.20;;;;;;;27.53;38.19;92685.00;5028539;28;20072;-75
2022/07/05 10:58:21;;;;;;;2.35;1.27;;;;;;;27.64;39.07;92689.59;5030373;28;20033;-77
2022/07/05 11:01:08;;;;;;;1.48;1.10;;;;;;;27.74;36.51;92686.09;5012830;28;20037;-75
2022/07/05 11:03:59;;;;;;;3.40;1.40;;;;;;;27.58;37.64;92681.94;5030293;28;20122;-75
2022/07/05 11:06:30;;;;;;;1.58;1.00;;;;;;;27.88;38.02;92686.09;5011723;28;20040;-75
2022/07/05 11:08:59;;;;;;;2.30;1.35;;;;;;;28.29;39.67;92690.88;5012914;28;20399;-75
2022/07/05 11:11:29;;;;;;;1.60;1.08;;;;;;;28.04;36.39;92685.63;5012664;28;20034;-75
2022/07/05 11:13:58;;;;;;;1.90;1.23;;;;;;;28.18;36.49;92679.41;5030599;28;20030;-75
2022/07/05 11:16:24;;;;;;;2.63;1.05;;;;;;;28.18;36.86;92690.94;5030003;28;20034;-75
2022/07/05 11:19:08;;;;;;;1.80;1.08;;;;;;;28.27;36.97;92685.13;5030358;28;20045;-75
2022/07/05 11:21:35;;;;;;;1.95;1.10;;;;;;;27.89;37.25;92679.53;5030165;28;20030;-75
2022/07/05 11:24:22;;;;;;;2.28;1.10;;;;;;;28.06;38.54;92672.56;4996188;28;20041;-75
2022/07/05 11:26:49;;;;;;;2.60;1.17;;;;;;;28.20;36.35;92660.97;5012063;28;20033;-75
2022/07/05 11:29:40;;;;;;;1.60;1.10;;;;;;;28.22;36.41;92661.34;5030156;28;20086;-75
2022/07/05 11:32:08;;;;;;;2.10;1.00;;;;;;;27.93;37.25;92668.78;5012343;28;20026;-75
2022/07/05 11:34:34;;;;;;;1.70;0.95;;;;;;;27.99;35.45;92661.84;5028475;28;20042;-75
2022/07/05 11:37:26;;;;;;;2.83;1.02;;;;;;;28.00;35.85;92669.50;5020296;28;20529;-74
2022/07/05 11:40:07;;;;;;;1.25;0.90;;;;;;;28.15;38.57;92659.44;5030006;28;20038;-75
2022/07/05 11:42:41;;;;;;;1.42;0.90;;;;;;;28.24;34.65;92667.09;5016034;28;20037;-75
2022/07/05 11:45:08;;;;;;;1.63;1.08;;;;;;;28.56;35.69;92661.53;5030360;28;20411;-75